sensor_id;sensor_type;location;lat;lon;timestamp;P1;durP1;ratioP1;P2;durP2;ratioP2
42586;SDS011;28216;53.362;-6.288;2022-08-21T00:02:15;12.07;;;2.78;;
42586;SDS011;28216;53.362;-6.288;2022-08-21T00:04:46;8.30;;;2.47;;
42586;SDS011;28216;53.362;-6.288;2022-08-21T00:07:13;11.48;;;3.00;;
42586;SDS011;28216;53.362;-6.288;2022-08-21T00:09:38;10.75;;;3.22;;
42586;SDS011;28216;53.362;-6.288;2022-08-21T00:12:04;9.75;;;3.10;;
42586;SDS011;28216;53.362;-6.288;2022-08-21T00:14:30;10.93;;;2.95;;
42586;SDS011;28216;53.362;-6.288;2022-08-21T00:16:57;10.63;;;2.65;;
42586;SDS011;28216;53.362;-6.288;2022-08-21T00:19:23;12.50;;;2.83;;
42586;SDS011;28216;53.362;-6.288;2022-08-21T00:21:50;9.75;;;2.40;;
42586;SDS011;28216;53.362;-6.288;2022-08-21T00:24:17;10.40;;;2.70;;
42586;SDS011;28216;53.362;-6.288;2022-08-21T00:26:43;10.48;;;2.67;;
42586;SDS011;28216;53.362;-6.288;2022-08-21T00:29:10;13.88;;;3.10;;
42586;SDS011;28216;53.362;-6.288;2022-08-21T00:31:35;10.15;;;2.78;;
42586;SDS011;28216;53.362;-6.288;2022-08-21T00:34:01;9.95;;;2.75;;
42586;SDS011;28216;53.362;-6.288;2022-08-21T00:36:27;12.00;;;2.72;;
42586;SDS011;28216;53.362;-6.288;2022-08-21T00:38:53;10.82;;;2.67;;
42586;SDS011;28216;53.362;-6.288;2022-08-21T00:41:18;10.65;;;2.60;;
42586;SDS011;28216;53.362;-6.288;2022-08-21T00:43:44;9.80;;;2.40;;
42586;SDS011;28216;53.362;-6.288;2022-08-21T00:46:09;9.73;;;2.58;;
42586;SDS011;28216;53.362;-6.288;2022-08-21T00:48:35;9.55;;;2.65;;
42586;SDS011;28216;53.362;-6.288;2022-08-21T00:51:06;14.55;;;2.92;;
42586;SDS011;28216;53.362;-6.288;2022-08-21T00:53:36;14.35;;;2.80;;
42586;SDS011;28216;53.362;-6.288;2022-08-21T00:56:04;10.15;;;2.85;;
42586;SDS011;28216;53.362;-6.288;2022-08-21T00:58:32;14.00;;;2.90;;
42586;SDS011;28216;53.362;-6.288;2022-08-21T01:01:00;15.85;;;2.80;;
42586;SDS011;28216;53.362;-6.288;2022-08-21T01:03:27;10.00;;;2.80;;
42586;SDS011;28216;53.362;-6.288;2022-08-21T01:05:53;8.27;;;2.42;;
42586;SDS011;28216;53.362;-6.288;2022-08-21T01:08:19;10.02;;;2.67;;
42586;SDS011;28216;53.362;-6.288;2022-08-21T01:10:46;6.78;;;2.15;;
42586;SDS011;28216;53.362;-6.288;2022-08-21T01:13:13;10.38;;;2.75;;
42586;SDS011;28216;53.362;-6.288;2022-08-21T01:15:43;11.25;;;2.97;;
42586;SDS011;28216;53.362;-6.288;2022-08-21T01:18:14;8.45;;;2.55;;
42586;SDS011;28216;53.362;-6.288;2022-08-21T01:20:42;7.65;;;2.75;;
42586;SDS011;28216;53.362;-6.288;2022-08-21T01:23:10;13.70;;;2.63;;
42586;SDS011;28216;53.362;-6.288;2022-08-21T01:25:35;11.98;;;2.58;;
42586;SDS011;28216;53.362;-6.288;2022-08-21T01:28:02;10.77;;;2.42;;
42586;SDS011;28216;53.362;-6.288;2022-08-21T01:30:34;12.48;;;2.50;;
42586;SDS011;28216;53.362;-6.288;2022-08-21T01:33:01;9.98;;;2.70;;
42586;SDS011;28216;53.362;-6.288;2022-08-21T01:35:27;10.70;;;2.47;;
42586;SDS011;28216;53.362;-6.288;2022-08-21T01:37:52;10.63;;;2.60;;
42586;SDS011;28216;53.362;-6.288;2022-08-21T01:40:18;10.13;;;2.80;;
42586;SDS011;28216;53.362;-6.288;2022-08-21T01:42:44;10.38;;;2.80;;
42586;SDS011;28216;53.362;-6.288;2022-08-21T01:45:11;9.52;;;2.60;;
42586;SDS011;28216;53.362;-6.288;2022-08-21T01:47:37;9.70;;;2.83;;
42586;SDS011;28216;53.362;-6.288;2022-08-21T01:50:04;11.75;;;3.08;;
42586;SDS011;28216;53.362;-6.288;2022-08-21T01:52:32;11.48;;;2.65;;
42586;SDS011;28216;53.362;-6.288;2022-08-21T01:54:57;12.80;;;2.60;;
42586;SDS011;28216;53.362;-6.288;2022-08-21T01:57:23;12.27;;;2.60;;
42586;SDS011;28216;53.362;-6.288;2022-08-21T01:59:48;12.77;;;2.83;;
42586;SDS011;28216;53.362;-6.288;2022-08-21T02:02:14;13.57;;;2.78;;
42586;SDS011;28216;53.362;-6.288;2022-08-21T02:04:39;9.70;;;2.50;;
42586;SDS011;28216;53.362;-6.288;2022-08-21T02:07:05;12.13;;;2.50;;
42586;SDS011;28216;53.362;-6.288;2022-08-21T02:09:31;10.73;;;2.60;;
42586;SDS011;28216;53.362;-6.288;2022-08-21T02:11:57;13.38;;;2.67;;
42586;SDS011;28216;53.362;-6.288;2022-08-21T02:14:22;15.27;;;2.70;;
42586;SDS011;28216;53.362;-6.288;2022-08-21T02:16:48;9.60;;;2.60;;
42586;SDS011;28216;53.362;-6.288;2022-08-21T02:19:14;16.05;;;3.05;;
42586;SDS011;28216;53.362;-6.288;2022-08-21T02:21:40;11.07;;;2.47;;
42586;SDS011;28216;53.362;-6.288;2022-08-21T02:24:06;9.82;;;2.28;;
42586;SDS011;28216;53.362;-6.288;2022-08-21T02:26:32;13.27;;;2.60;;
42586;SDS011;28216;53.362;-6.288;2022-08-21T02:28:58;11.52;;;2.28;;
42586;SDS011;28216;53.362;-6.288;2022-08-21T02:31:24;13.32;;;3.05;;
42586;SDS011;28216;53.362;-6.288;2022-08-21T02:33:50;12.73;;;2.55;;
42586;SDS011;28216;53.362;-6.288;2022-08-21T02:36:15;10.38;;;2.83;;
42586;SDS011;28216;53.362;-6.288;2022-08-21T02:38:41;12.20;;;2.53;;
42586;SDS011;28216;53.362;-6.288;2022-08-21T02:41:09;9.15;;;2.70;;
42586;SDS011;28216;53.362;-6.288;2022-08-21T02:43:38;15.75;;;2.95;;
42586;SDS011;28216;53.362;-6.288;2022-08-21T02:46:04;11.65;;;2.40;;
42586;SDS011;28216;53.362;-6.288;2022-08-21T02:48:31;12.68;;;2.25;;
42586;SDS011;28216;53.362;-6.288;2022-08-21T02:51:00;12.00;;;2.58;;
42586;SDS011;28216;53.362;-6.288;2022-08-21T02:53:27;12.32;;;2.50;;
42586;SDS011;28216;53.362;-6.288;2022-08-21T02:55:53;14.00;;;3.08;;
42586;SDS011;28216;53.362;-6.288;2022-08-21T02:58:23;11.02;;;2.45;;
42586;SDS011;28216;53.362;-6.288;2022-08-21T03:00:51;10.52;;;3.05;;
42586;SDS011;28216;53.362;-6.288;2022-08-21T03:03:17;11.38;;;2.90;;
42586;SDS011;28216;53.362;-6.288;2022-08-21T03:05:43;11.63;;;2.33;;
42586;SDS011;28216;53.362;-6.288;2022-08-21T03:08:10;10.35;;;2.33;;
42586;SDS011;28216;53.362;-6.288;2022-08-21T03:10:37;10.57;;;2.53;;
42586;SDS011;28216;53.362;-6.288;2022-08-21T03:13:07;13.77;;;2.90;;
42586;SDS011;28216;53.362;-6.288;2022-08-21T03:15:34;11.40;;;2.58;;
42586;SDS011;28216;53.362;-6.288;2022-08-21T03:18:01;14.57;;;2.78;;
42586;SDS011;28216;53.362;-6.288;2022-08-21T03:20:27;11.73;;;2.55;;
42586;SDS011;28216;53.362;-6.288;2022-08-21T03:22:54;13.73;;;2.45;;
42586;SDS011;28216;53.362;-6.288;2022-08-21T03:25:20;9.25;;;2.50;;
42586;SDS011;28216;53.362;-6.288;2022-08-21T03:27:47;12.13;;;2.28;;
42586;SDS011;28216;53.362;-6.288;2022-08-21T03:30:14;13.27;;;2.88;;
42586;SDS011;28216;53.362;-6.288;2022-08-21T03:32:40;10.65;;;2.40;;
42586;SDS011;28216;53.362;-6.288;2022-08-21T03:35:06;11.10;;;2.22;;
42586;SDS011;28216;53.362;-6.288;2022-08-21T03:37:33;9.73;;;2.28;;
42586;SDS011;28216;53.362;-6.288;2022-08-21T03:39:58;15.35;;;2.80;;
42586;SDS011;28216;53.362;-6.288;2022-08-21T03:42:24;12.43;;;2.47;;
42586;SDS011;28216;53.362;-6.288;2022-08-21T03:44:50;11.57;;;2.58;;
42586;SDS011;28216;53.362;-6.288;2022-08-21T03:47:16;11.35;;;2.40;;
42586;SDS011;28216;53.362;-6.288;2022-08-21T03:49:42;10.88;;;2.53;;
42586;SDS011;28216;53.362;-6.288;2022-08-21T03:52:07;15.43;;;2.35;;
42586;SDS011;28216;53.362;-6.288;2022-08-21T03:54:33;16.02;;;2.90;;
42586;SDS011;28216;53.362;-6.288;2022-08-21T03:56:58;13.10;;;2.70;;
42586;SDS011;28216;53.362;-6.288;2022-08-21T03:59:24;10.18;;;2.47;;
42586;SDS011;28216;53.362;-6.288;2022-08-21T04:04:23;9.57;;;2.30;;
42586;SDS011;28216;53.362;-6.288;2022-08-21T04:06:50;12.60;;;2.63;;
42586;SDS011;28216;53.362;-6.288;2022-08-21T04:09:15;11.98;;;2.35;;
42586;SDS011;28216;53.362;-6.288;2022-08-21T04:11:42;10.63;;;2.42;;
42586;SDS011;28216;53.362;-6.288;2022-08-21T04:14:07;11.07;;;2.17;;
42586;SDS011;28216;53.362;-6.288;2022-08-21T04:16:33;11.68;;;2.47;;
42586;SDS011;28216;53.362;-6.288;2022-08-21T04:18:59;12.93;;;2.30;;
42586;SDS011;28216;53.362;-6.288;2022-08-21T04:21:24;14.00;;;2.90;;
42586;SDS011;28216;53.362;-6.288;2022-08-21T04:23:50;11.13;;;2.35;;
42586;SDS011;28216;53.362;-6.288;2022-08-21T04:26:16;13.73;;;2.60;;
42586;SDS011;28216;53.362;-6.288;2022-08-21T04:28:41;9.15;;;2.10;;
42586;SDS011;28216;53.362;-6.288;2022-08-21T04:31:08;10.63;;;2.67;;
42586;SDS011;28216;53.362;-6.288;2022-08-21T04:33:34;13.27;;;2.42;;
42586;SDS011;28216;53.362;-6.288;2022-08-21T04:35:59;11.13;;;2.92;;
42586;SDS011;28216;53.362;-6.288;2022-08-21T04:38:25;13.30;;;2.45;;
42586;SDS011;28216;53.362;-6.288;2022-08-21T04:40:51;12.95;;;3.45;;
42586;SDS011;28216;53.362;-6.288;2022-08-21T04:43:17;10.07;;;2.40;;
42586;SDS011;28216;53.362;-6.288;2022-08-21T04:45:45;14.73;;;2.90;;
42586;SDS011;28216;53.362;-6.288;2022-08-21T04:48:13;12.98;;;2.63;;
42586;SDS011;28216;53.362;-6.288;2022-08-21T04:50:41;11.43;;;2.40;;
42586;SDS011;28216;53.362;-6.288;2022-08-21T04:53:35;11.60;;;2.53;;
42586;SDS011;28216;53.362;-6.288;2022-08-21T04:56:06;11.80;;;2.58;;
42586;SDS011;28216;53.362;-6.288;2022-08-21T04:58:35;11.52;;;2.33;;
42586;SDS011;28216;53.362;-6.288;2022-08-21T05:01:02;11.05;;;2.50;;
42586;SDS011;28216;53.362;-6.288;2022-08-21T05:03:32;12.88;;;2.50;;
42586;SDS011;28216;53.362;-6.288;2022-08-21T05:05:59;14.02;;;2.92;;
42586;SDS011;28216;53.362;-6.288;2022-08-21T05:08:25;13.85;;;2.70;;
42586;SDS011;28216;53.362;-6.288;2022-08-21T05:10:53;11.52;;;2.70;;
42586;SDS011;28216;53.362;-6.288;2022-08-21T05:13:19;11.98;;;2.70;;
42586;SDS011;28216;53.362;-6.288;2022-08-21T05:15:45;11.68;;;2.35;;
42586;SDS011;28216;53.362;-6.288;2022-08-21T05:18:11;10.35;;;2.67;;
42586;SDS011;28216;53.362;-6.288;2022-08-21T05:20:37;11.40;;;2.38;;
42586;SDS011;28216;53.362;-6.288;2022-08-21T05:23:07;15.27;;;2.50;;
42586;SDS011;28216;53.362;-6.288;2022-08-21T05:25:34;13.43;;;2.50;;
42586;SDS011;28216;53.362;-6.288;2022-08-21T05:28:00;11.00;;;2.45;;
42586;SDS011;28216;53.362;-6.288;2022-08-21T05:30:25;13.25;;;2.92;;
42586;SDS011;28216;53.362;-6.288;2022-08-21T05:32:55;14.63;;;2.35;;
42586;SDS011;28216;53.362;-6.288;2022-08-21T05:35:24;11.20;;;2.63;;
42586;SDS011;28216;53.362;-6.288;2022-08-21T05:37:50;10.35;;;2.45;;
42586;SDS011;28216;53.362;-6.288;2022-08-21T05:40:15;15.27;;;2.40;;
42586;SDS011;28216;53.362;-6.288;2022-08-21T05:42:41;13.82;;;2.42;;
42586;SDS011;28216;53.362;-6.288;2022-08-21T05:45:07;9.40;;;2.45;;
42586;SDS011;28216;53.362;-6.288;2022-08-21T05:47:32;9.55;;;2.75;;
42586;SDS011;28216;53.362;-6.288;2022-08-21T05:49:58;14.48;;;2.60;;
42586;SDS011;28216;53.362;-6.288;2022-08-21T05:52:23;8.55;;;2.25;;
42586;SDS011;28216;53.362;-6.288;2022-08-21T05:54:49;12.13;;;2.47;;
42586;SDS011;28216;53.362;-6.288;2022-08-21T05:57:15;11.90;;;2.60;;
42586;SDS011;28216;53.362;-6.288;2022-08-21T05:59:40;11.48;;;2.50;;
42586;SDS011;28216;53.362;-6.288;2022-08-21T06:02:06;11.43;;;2.95;;
42586;SDS011;28216;53.362;-6.288;2022-08-21T06:04:39;8.93;;;2.50;;
42586;SDS011;28216;53.362;-6.288;2022-08-21T06:07:06;11.88;;;2.35;;
42586;SDS011;28216;53.362;-6.288;2022-08-21T06:09:32;11.75;;;2.42;;
42586;SDS011;28216;53.362;-6.288;2022-08-21T06:11:58;7.30;;;2.40;;
42586;SDS011;28216;53.362;-6.288;2022-08-21T06:14:27;11.38;;;2.38;;
42586;SDS011;28216;53.362;-6.288;2022-08-21T06:16:53;11.35;;;2.67;;
42586;SDS011;28216;53.362;-6.288;2022-08-21T06:19:18;11.02;;;2.50;;
42586;SDS011;28216;53.362;-6.288;2022-08-21T06:21:44;9.35;;;2.40;;
42586;SDS011;28216;53.362;-6.288;2022-08-21T06:24:09;10.32;;;2.25;;
42586;SDS011;28216;53.362;-6.288;2022-08-21T06:26:34;14.52;;;2.88;;
42586;SDS011;28216;53.362;-6.288;2022-08-21T06:29:00;15.55;;;2.65;;
42586;SDS011;28216;53.362;-6.288;2022-08-21T06:31:26;15.20;;;2.42;;
42586;SDS011;28216;53.362;-6.288;2022-08-21T06:33:52;13.30;;;2.40;;
42586;SDS011;28216;53.362;-6.288;2022-08-21T06:36:18;11.10;;;2.55;;
42586;SDS011;28216;53.362;-6.288;2022-08-21T06:38:45;10.38;;;2.38;;
42586;SDS011;28216;53.362;-6.288;2022-08-21T06:41:11;9.40;;;2.40;;
42586;SDS011;28216;53.362;-6.288;2022-08-21T06:43:37;10.88;;;2.38;;
42586;SDS011;28216;53.362;-6.288;2022-08-21T06:46:02;9.90;;;2.20;;
42586;SDS011;28216;53.362;-6.288;2022-08-21T06:48:28;9.80;;;2.30;;
42586;SDS011;28216;53.362;-6.288;2022-08-21T06:50:55;11.68;;;2.85;;
42586;SDS011;28216;53.362;-6.288;2022-08-21T06:53:21;12.32;;;2.78;;
42586;SDS011;28216;53.362;-6.288;2022-08-21T06:55:47;7.63;;;2.20;;
42586;SDS011;28216;53.362;-6.288;2022-08-21T06:58:14;12.70;;;2.97;;
42586;SDS011;28216;53.362;-6.288;2022-08-21T07:00:41;10.10;;;2.33;;
42586;SDS011;28216;53.362;-6.288;2022-08-21T07:03:15;8.63;;;2.55;;
42586;SDS011;28216;53.362;-6.288;2022-08-21T07:05:46;11.45;;;2.35;;
42586;SDS011;28216;53.362;-6.288;2022-08-21T07:08:11;11.52;;;2.35;;
42586;SDS011;28216;53.362;-6.288;2022-08-21T07:10:37;14.10;;;2.70;;
42586;SDS011;28216;53.362;-6.288;2022-08-21T07:13:02;12.73;;;2.80;;
42586;SDS011;28216;53.362;-6.288;2022-08-21T07:15:28;9.95;;;2.35;;
42586;SDS011;28216;53.362;-6.288;2022-08-21T07:17:54;6.50;;;2.15;;
42586;SDS011;28216;53.362;-6.288;2022-08-21T07:20:20;11.25;;;2.20;;
42586;SDS011;28216;53.362;-6.288;2022-08-21T07:22:45;8.48;;;2.28;;
42586;SDS011;28216;53.362;-6.288;2022-08-21T07:25:11;12.00;;;2.55;;
42586;SDS011;28216;53.362;-6.288;2022-08-21T07:27:36;9.48;;;2.30;;
42586;SDS011;28216;53.362;-6.288;2022-08-21T07:30:03;11.30;;;2.72;;
42586;SDS011;28216;53.362;-6.288;2022-08-21T07:32:30;9.57;;;2.50;;
42586;SDS011;28216;53.362;-6.288;2022-08-21T07:34:55;12.73;;;2.80;;
42586;SDS011;28216;53.362;-6.288;2022-08-21T07:37:21;7.15;;;2.35;;
42586;SDS011;28216;53.362;-6.288;2022-08-21T07:39:46;10.40;;;2.33;;
42586;SDS011;28216;53.362;-6.288;2022-08-21T07:42:14;12.32;;;2.22;;
42586;SDS011;28216;53.362;-6.288;2022-08-21T07:44:40;14.80;;;2.90;;
42586;SDS011;28216;53.362;-6.288;2022-08-21T07:47:05;11.60;;;2.40;;
42586;SDS011;28216;53.362;-6.288;2022-08-21T07:49:31;13.20;;;2.42;;
42586;SDS011;28216;53.362;-6.288;2022-08-21T07:51:59;11.43;;;2.40;;
42586;SDS011;28216;53.362;-6.288;2022-08-21T07:54:24;12.57;;;2.40;;
42586;SDS011;28216;53.362;-6.288;2022-08-21T07:56:50;9.15;;;2.28;;
42586;SDS011;28216;53.362;-6.288;2022-08-21T07:59:16;9.60;;;2.38;;
42586;SDS011;28216;53.362;-6.288;2022-08-21T08:01:41;8.18;;;2.47;;
42586;SDS011;28216;53.362;-6.288;2022-08-21T08:04:07;6.95;;;2.20;;
42586;SDS011;28216;53.362;-6.288;2022-08-21T08:06:32;14.02;;;2.08;;
42586;SDS011;28216;53.362;-6.288;2022-08-21T08:08:58;9.25;;;2.20;;
42586;SDS011;28216;53.362;-6.288;2022-08-21T08:11:23;10.48;;;2.53;;
42586;SDS011;28216;53.362;-6.288;2022-08-21T08:13:50;7.80;;;2.20;;
42586;SDS011;28216;53.362;-6.288;2022-08-21T08:16:16;8.20;;;1.98;;
42586;SDS011;28216;53.362;-6.288;2022-08-21T08:18:42;9.18;;;2.22;;
42586;SDS011;28216;53.362;-6.288;2022-08-21T08:21:09;9.18;;;2.17;;
42586;SDS011;28216;53.362;-6.288;2022-08-21T08:23:35;9.60;;;2.20;;
42586;SDS011;28216;53.362;-6.288;2022-08-21T08:26:01;7.82;;;1.80;;
42586;SDS011;28216;53.362;-6.288;2022-08-21T08:28:29;8.63;;;2.20;;
42586;SDS011;28216;53.362;-6.288;2022-08-21T08:30:56;5.18;;;1.75;;
42586;SDS011;28216;53.362;-6.288;2022-08-21T08:33:22;7.50;;;2.00;;
42586;SDS011;28216;53.362;-6.288;2022-08-21T08:35:48;6.05;;;1.83;;
42586;SDS011;28216;53.362;-6.288;2022-08-21T08:38:15;7.22;;;2.00;;
42586;SDS011;28216;53.362;-6.288;2022-08-21T08:43:28;8.68;;;2.30;;
42586;SDS011;28216;53.362;-6.288;2022-08-21T08:45:57;8.45;;;2.10;;
42586;SDS011;28216;53.362;-6.288;2022-08-21T08:49:13;6.18;;;1.85;;
42586;SDS011;28216;53.362;-6.288;2022-08-21T08:54:39;6.90;;;2.17;;
42586;SDS011;28216;53.362;-6.288;2022-08-21T08:57:15;6.05;;;2.13;;
42586;SDS011;28216;53.362;-6.288;2022-08-21T08:59:43;5.13;;;1.80;;
42586;SDS011;28216;53.362;-6.288;2022-08-21T09:02:12;5.15;;;1.58;;
42586;SDS011;28216;53.362;-6.288;2022-08-21T09:04:39;5.68;;;1.60;;
42586;SDS011;28216;53.362;-6.288;2022-08-21T09:13:14;5.93;;;2.00;;
42586;SDS011;28216;53.362;-6.288;2022-08-21T09:16:00;5.47;;;1.42;;
42586;SDS011;28216;53.362;-6.288;2022-08-21T09:24:32;6.18;;;1.80;;
42586;SDS011;28216;53.362;-6.288;2022-08-21T09:27:25;4.03;;;1.35;;
42586;SDS011;28216;53.362;-6.288;2022-08-21T09:29:52;3.10;;;1.40;;
42586;SDS011;28216;53.362;-6.288;2022-08-21T09:32:29;3.92;;;1.33;;
42586;SDS011;28216;53.362;-6.288;2022-08-21T09:37:35;3.78;;;1.20;;
42586;SDS011;28216;53.362;-6.288;2022-08-21T09:40:30;4.28;;;1.20;;
42586;SDS011;28216;53.362;-6.288;2022-08-21T09:43:06;4.47;;;1.33;;
42586;SDS011;28216;53.362;-6.288;2022-08-21T09:45:43;5.10;;;1.20;;
42586;SDS011;28216;53.362;-6.288;2022-08-21T09:50:35;7.82;;;1.45;;
42586;SDS011;28216;53.362;-6.288;2022-08-21T09:53:01;4.55;;;1.40;;
42586;SDS011;28216;53.362;-6.288;2022-08-21T09:55:37;9.43;;;1.20;;
42586;SDS011;28216;53.362;-6.288;2022-08-21T09:58:31;3.95;;;1.17;;
42586;SDS011;28216;53.362;-6.288;2022-08-21T10:01:01;5.35;;;1.38;;
42586;SDS011;28216;53.362;-6.288;2022-08-21T10:03:28;3.65;;;1.40;;
42586;SDS011;28216;53.362;-6.288;2022-08-21T10:08:26;5.53;;;1.10;;
42586;SDS011;28216;53.362;-6.288;2022-08-21T10:11:01;3.17;;;1.20;;
42586;SDS011;28216;53.362;-6.288;2022-08-21T10:13:44;5.43;;;1.20;;
42586;SDS011;28216;53.362;-6.288;2022-08-21T10:27:12;7.15;;;1.50;;
42586;SDS011;28216;53.362;-6.288;2022-08-21T10:29:54;3.45;;;1.20;;
42586;SDS011;28216;53.362;-6.288;2022-08-21T10:38:36;6.50;;;1.45;;
42586;SDS011;28216;53.362;-6.288;2022-08-21T10:48:36;8.00;;;1.27;;
42586;SDS011;28216;53.362;-6.288;2022-08-21T10:51:15;3.05;;;1.10;;
42586;SDS011;28216;53.362;-6.288;2022-08-21T10:56:47;2.60;;;1.08;;
42586;SDS011;28216;53.362;-6.288;2022-08-21T11:02:13;2.70;;;1.45;;
42586;SDS011;28216;53.362;-6.288;2022-08-21T11:04:48;2.92;;;1.13;;
42586;SDS011;28216;53.362;-6.288;2022-08-21T11:07:18;3.75;;;1.20;;
42586;SDS011;28216;53.362;-6.288;2022-08-21T11:09:48;4.40;;;1.10;;
42586;SDS011;28216;53.362;-6.288;2022-08-21T11:12:34;2.90;;;1.20;;
42586;SDS011;28216;53.362;-6.288;2022-08-21T11:17:38;5.68;;;1.30;;
42586;SDS011;28216;53.362;-6.288;2022-08-21T11:20:11;5.80;;;1.30;;
42586;SDS011;28216;53.362;-6.288;2022-08-21T11:22:46;6.40;;;1.47;;
42586;SDS011;28216;53.362;-6.288;2022-08-21T11:27:54;2.90;;;1.30;;
42586;SDS011;28216;53.362;-6.288;2022-08-21T11:30:25;7.78;;;1.50;;
42586;SDS011;28216;53.362;-6.288;2022-08-21T11:35:35;7.18;;;1.38;;
42586;SDS011;28216;53.362;-6.288;2022-08-21T11:38:29;1.75;;;1.00;;
42586;SDS011;28216;53.362;-6.288;2022-08-21T11:44:13;4.90;;;1.13;;
42586;SDS011;28216;53.362;-6.288;2022-08-21T11:47:05;2.38;;;1.30;;
42586;SDS011;28216;53.362;-6.288;2022-08-21T11:54:58;2.00;;;1.10;;
42586;SDS011;28216;53.362;-6.288;2022-08-21T12:00:31;3.50;;;1.30;;
42586;SDS011;28216;53.362;-6.288;2022-08-21T12:03:34;3.80;;;1.40;;
42586;SDS011;28216;53.362;-6.288;2022-08-21T12:05:56;4.55;;;1.52;;
42586;SDS011;28216;53.362;-6.288;2022-08-21T12:08:28;4.43;;;1.38;;
42586;SDS011;28216;53.362;-6.288;2022-08-21T12:13:51;3.25;;;1.33;;
42586;SDS011;28216;53.362;-6.288;2022-08-21T12:16:28;3.67;;;1.30;;
42586;SDS011;28216;53.362;-6.288;2022-08-21T12:19:05;4.05;;;1.33;;
42586;SDS011;28216;53.362;-6.288;2022-08-21T12:21:32;2.00;;;1.23;;
42586;SDS011;28216;53.362;-6.288;2022-08-21T12:26:53;2.50;;;1.10;;
42586;SDS011;28216;53.362;-6.288;2022-08-21T12:31:53;6.57;;;1.13;;
42586;SDS011;28216;53.362;-6.288;2022-08-21T12:34:35;5.32;;;1.30;;
42586;SDS011;28216;53.362;-6.288;2022-08-21T12:37:04;6.38;;;1.42;;
42586;SDS011;28216;53.362;-6.288;2022-08-21T12:39:39;2.00;;;1.10;;
42586;SDS011;28216;53.362;-6.288;2022-08-21T12:45:00;2.30;;;1.23;;
42586;SDS011;28216;53.362;-6.288;2022-08-21T12:47:45;4.57;;;1.20;;
42586;SDS011;28216;53.362;-6.288;2022-08-21T12:50:20;2.95;;;1.48;;
42586;SDS011;28216;53.362;-6.288;2022-08-21T12:52:55;4.85;;;1.42;;
42586;SDS011;28216;53.362;-6.288;2022-08-21T12:55:28;3.88;;;1.42;;
42586;SDS011;28216;53.362;-6.288;2022-08-21T12:57:56;4.82;;;1.50;;
42586;SDS011;28216;53.362;-6.288;2022-08-21T13:00:23;5.57;;;1.73;;
42586;SDS011;28216;53.362;-6.288;2022-08-21T13:02:51;5.22;;;1.60;;
42586;SDS011;28216;53.362;-6.288;2022-08-21T13:05:36;5.28;;;1.60;;
42586;SDS011;28216;53.362;-6.288;2022-08-21T13:08:06;4.30;;;1.60;;
42586;SDS011;28216;53.362;-6.288;2022-08-21T13:10:34;6.10;;;1.80;;
42586;SDS011;28216;53.362;-6.288;2022-08-21T13:13:02;8.55;;;1.80;;
42586;SDS011;28216;53.362;-6.288;2022-08-21T13:15:34;4.93;;;1.90;;
42586;SDS011;28216;53.362;-6.288;2022-08-21T13:18:03;2.88;;;1.50;;
42586;SDS011;28216;53.362;-6.288;2022-08-21T13:20:33;3.92;;;1.52;;
42586;SDS011;28216;53.362;-6.288;2022-08-21T13:23:03;7.00;;;1.90;;
42586;SDS011;28216;53.362;-6.288;2022-08-21T13:25:40;5.03;;;1.60;;
42586;SDS011;28216;53.362;-6.288;2022-08-21T13:28:10;3.67;;;1.55;;
42586;SDS011;28216;53.362;-6.288;2022-08-21T13:30:43;5.82;;;1.77;;
42586;SDS011;28216;53.362;-6.288;2022-08-21T13:33:13;4.72;;;1.52;;
42586;SDS011;28216;53.362;-6.288;2022-08-21T13:35:57;4.30;;;1.60;;
42586;SDS011;28216;53.362;-6.288;2022-08-21T13:38:33;7.40;;;2.08;;
42586;SDS011;28216;53.362;-6.288;2022-08-21T13:43:43;4.80;;;1.77;;
42586;SDS011;28216;53.362;-6.288;2022-08-21T13:46:12;5.15;;;1.55;;
42586;SDS011;28216;53.362;-6.288;2022-08-21T13:48:39;4.55;;;1.48;;
42586;SDS011;28216;53.362;-6.288;2022-08-21T13:51:06;6.15;;;1.50;;
42586;SDS011;28216;53.362;-6.288;2022-08-21T13:53:33;4.38;;;1.48;;
42586;SDS011;28216;53.362;-6.288;2022-08-21T13:56:04;7.32;;;1.77;;
42586;SDS011;28216;53.362;-6.288;2022-08-21T13:58:41;3.45;;;1.55;;
42586;SDS011;28216;53.362;-6.288;2022-08-21T14:01:17;5.00;;;1.60;;
42586;SDS011;28216;53.362;-6.288;2022-08-21T14:03:59;3.95;;;1.60;;
42586;SDS011;28216;53.362;-6.288;2022-08-21T14:06:34;4.63;;;1.57;;
42586;SDS011;28216;53.362;-6.288;2022-08-21T14:09:13;3.88;;;1.25;;
42586;SDS011;28216;53.362;-6.288;2022-08-21T14:11:52;9.13;;;1.50;;
42586;SDS011;28216;53.362;-6.288;2022-08-21T14:14:22;6.32;;;1.60;;
42586;SDS011;28216;53.362;-6.288;2022-08-21T14:16:53;5.38;;;1.60;;
42586;SDS011;28216;53.362;-6.288;2022-08-21T14:19:22;4.63;;;1.60;;
42586;SDS011;28216;53.362;-6.288;2022-08-21T14:25:07;4.05;;;1.63;;
42586;SDS011;28216;53.362;-6.288;2022-08-21T14:27:36;3.90;;;1.60;;
42586;SDS011;28216;53.362;-6.288;2022-08-21T14:30:16;4.93;;;2.00;;
42586;SDS011;28216;53.362;-6.288;2022-08-21T14:33:31;5.25;;;1.27;;
42586;SDS011;28216;53.362;-6.288;2022-08-21T14:36:00;5.88;;;1.55;;
42586;SDS011;28216;53.362;-6.288;2022-08-21T14:38:29;3.47;;;1.50;;
42586;SDS011;28216;53.362;-6.288;2022-08-21T14:41:03;7.25;;;1.63;;
42586;SDS011;28216;53.362;-6.288;2022-08-21T14:43:35;8.10;;;1.60;;
42586;SDS011;28216;53.362;-6.288;2022-08-21T14:49:23;3.85;;;1.38;;
42586;SDS011;28216;53.362;-6.288;2022-08-21T14:52:02;6.32;;;1.40;;
42586;SDS011;28216;53.362;-6.288;2022-08-21T14:54:30;5.85;;;1.65;;
42586;SDS011;28216;53.362;-6.288;2022-08-21T14:56:57;4.13;;;1.55;;
42586;SDS011;28216;53.362;-6.288;2022-08-21T14:59:25;3.78;;;1.40;;
42586;SDS011;28216;53.362;-6.288;2022-08-21T15:01:51;3.78;;;1.40;;
42586;SDS011;28216;53.362;-6.288;2022-08-21T15:04:19;5.10;;;1.63;;
42586;SDS011;28216;53.362;-6.288;2022-08-21T15:06:45;6.63;;;1.27;;
42586;SDS011;28216;53.362;-6.288;2022-08-21T15:09:10;7.10;;;1.40;;
42586;SDS011;28216;53.362;-6.288;2022-08-21T15:11:36;3.70;;;1.38;;
42586;SDS011;28216;53.362;-6.288;2022-08-21T15:14:05;7.07;;;1.50;;
42586;SDS011;28216;53.362;-6.288;2022-08-21T15:16:33;2.35;;;1.23;;
42586;SDS011;28216;53.362;-6.288;2022-08-21T15:19:00;5.18;;;1.40;;
42586;SDS011;28216;53.362;-6.288;2022-08-21T15:21:26;4.32;;;1.40;;
42586;SDS011;28216;53.362;-6.288;2022-08-21T15:23:57;3.22;;;1.38;;
42586;SDS011;28216;53.362;-6.288;2022-08-21T15:26:26;2.47;;;1.17;;
42586;SDS011;28216;53.362;-6.288;2022-08-21T15:28:54;3.72;;;1.38;;
42586;SDS011;28216;53.362;-6.288;2022-08-21T15:31:20;3.28;;;1.30;;
42586;SDS011;28216;53.362;-6.288;2022-08-21T15:33:45;3.65;;;1.20;;
42586;SDS011;28216;53.362;-6.288;2022-08-21T15:36:11;3.35;;;1.40;;
42586;SDS011;28216;53.362;-6.288;2022-08-21T15:38:36;3.13;;;1.40;;
42586;SDS011;28216;53.362;-6.288;2022-08-21T15:41:03;4.05;;;1.60;;
42586;SDS011;28216;53.362;-6.288;2022-08-21T15:43:30;3.95;;;1.23;;
42586;SDS011;28216;53.362;-6.288;2022-08-21T15:46:02;2.60;;;1.15;;
42586;SDS011;28216;53.362;-6.288;2022-08-21T15:48:28;3.50;;;1.30;;
42586;SDS011;28216;53.362;-6.288;2022-08-21T15:50:53;3.80;;;1.15;;
42586;SDS011;28216;53.362;-6.288;2022-08-21T15:53:19;5.60;;;1.50;;
42586;SDS011;28216;53.362;-6.288;2022-08-21T15:55:50;3.65;;;1.25;;
42586;SDS011;28216;53.362;-6.288;2022-08-21T15:58:16;4.60;;;1.48;;
42586;SDS011;28216;53.362;-6.288;2022-08-21T16:00:43;4.43;;;1.40;;
42586;SDS011;28216;53.362;-6.288;2022-08-21T16:03:12;2.28;;;1.20;;
42586;SDS011;28216;53.362;-6.288;2022-08-21T16:05:47;4.20;;;1.60;;
42586;SDS011;28216;53.362;-6.288;2022-08-21T16:08:17;3.63;;;1.30;;
42586;SDS011;28216;53.362;-6.288;2022-08-21T16:10:42;3.35;;;1.33;;
42586;SDS011;28216;53.362;-6.288;2022-08-21T16:13:11;4.38;;;1.30;;
42586;SDS011;28216;53.362;-6.288;2022-08-21T16:15:42;4.90;;;1.70;;
42586;SDS011;28216;53.362;-6.288;2022-08-21T16:18:07;3.25;;;1.30;;